This is the latest recevied weather packets stored in our database for station/object ED4YAZ-13. If no packets are shown the sender has not sent any weather packets the latest 10 day(s).
| Time | Temp. | Humidity | Pressure | Rain* | Wind** | Luminosity | Snow |
|---|---|---|---|---|---|---|---|
| 1777892042 | 15° C | 61% | 1013.4 hPa | - | - | - | - |
| 1777891969 | 15° C | 61% | 1013.4 hPa | - | - | - | - |
| 1777891900 | 15° C | 61% | 1013.4 hPa | - | - | - | - |
| 1777891358 | 14.44° C | 62% | 1013.7 hPa | - | - | - | - |
| 1777891300 | 14.44° C | 62% | 1013.7 hPa | - | - | - | - |
| 1777890700 | 15.56° C | 60% | 1013.3 hPa | - | - | - | - |
| 1777890100 | 15° C | 60% | 1013.6 hPa | - | - | - | - |
| 1777889702 | 16.11° C | 54% | 1013.1 hPa | - | - | - | - |
| 1777889487 | 16.11° C | 54% | 1013.1 hPa | - | - | - | - |
| 1777888887 | 18.33° C | 52% | 1012.2 hPa | - | - | - | - |
| 1777888339 | 16.67° C | 55% | 1012.9 hPa | - | - | - | - |
| 1777888287 | 16.67° C | 55% | 1012.9 hPa | - | - | - | - |
| 1777888013 | 16.67° C | 56% | 1013 hPa | - | - | - | - |
| 1777887687 | 16.67° C | 56% | 1013 hPa | - | - | - | - |
| 1777887073 | 15.56° C | 57% | 1013.5 hPa | - | - | - | - |
| 1777886739 | 14.44° C | 63% | 1013.8 hPa | - | - | - | - |
| 1777886473 | 14.44° C | 63% | 1013.8 hPa | - | - | - | - |
| 1777885904 | 13.89° C | 64% | 1014.1 hPa | - | - | - | - |
| 1777885873 | 13.89° C | 64% | 1014.1 hPa | - | - | - | - |
| 1777885794 | 13.33° C | 65% | 1014.3 hPa | - | - | - | - |
| 1777885273 | 13.33° C | 65% | 1014.3 hPa | - | - | - | - |
| 1777884668 | 14.44° C | 65% | 1014.1 hPa | - | - | - | - |
| 1777883468 | 13.33° C | 67% | 1014.5 hPa | - | - | - | - |
| 1777882868 | 13.33° C | 68% | 1014.4 hPa | - | - | - | - |
| 1777882267 | 12.78° C | 68% | 1014.5 hPa | - | - | - | - |
* Rain since midnight (hover to see other rain measurements)
** Current wind speed in m/s (hover to see current wind gust speed)